createdAt,value
2018-12-09T00:00:22.771Z,46.27
2018-12-09T00:05:26.057Z,46.08
2018-12-09T00:10:29.354Z,46.30
2018-12-09T00:15:32.634Z,46.49
2018-12-09T00:20:35.910Z,46.51
2018-12-09T00:25:39.281Z,46.32
2018-12-09T00:30:42.590Z,46.33
2018-12-09T00:35:45.869Z,46.34
2018-12-09T00:40:49.161Z,46.34
2018-12-09T00:45:52.446Z,46.16
2018-12-09T00:50:55.953Z,46.56
2018-12-09T00:55:59.962Z,46.53
2018-12-09T01:01:03.238Z,46.51
2018-12-09T01:06:06.510Z,46.95
2018-12-09T01:11:09.837Z,47.11
2018-12-09T01:16:13.123Z,46.63
2018-12-09T01:21:16.406Z,46.74
2018-12-09T01:26:19.698Z,46.96
2018-12-09T01:31:22.995Z,47.04
2018-12-09T01:36:26.280Z,47.17
2018-12-09T01:41:29.574Z,46.86
2018-12-09T01:46:32.879Z,47.03
2018-12-09T01:51:36.164Z,47.19
2018-12-09T01:56:39.722Z,47.23
2018-12-09T02:01:43.261Z,46.26
2018-12-09T02:06:46.551Z,46.61
2018-12-09T02:11:49.842Z,46.39
2018-12-09T02:16:53.658Z,47.07
2018-12-09T02:21:56.941Z,46.88
2018-12-09T02:27:00.218Z,47.08
2018-12-09T02:32:03.527Z,46.58
2018-12-09T02:37:06.818Z,46.92
2018-12-09T02:42:10.111Z,46.62
2018-12-09T02:47:13.403Z,47.14
2018-12-09T02:52:16.694Z,47.07
2018-12-09T02:57:19.989Z,46.65
2018-12-09T03:02:23.277Z,47.05
2018-12-09T03:07:26.583Z,46.54
2018-12-09T03:12:29.875Z,47.03
2018-12-09T03:17:33.186Z,47.05
2018-12-09T03:22:36.794Z,47.24
2018-12-09T03:27:40.075Z,46.93
2018-12-09T03:32:43.356Z,47.10
2018-12-09T03:37:46.649Z,47.27
2018-12-09T03:42:49.946Z,47.01
2018-12-09T03:47:53.245Z,47.12
2018-12-09T03:52:56.530Z,46.68
2018-12-09T03:57:59.838Z,46.12
2018-12-09T04:03:03.134Z,45.26
2018-12-09T04:08:06.538Z,45.60
2018-12-09T04:13:09.837Z,46.09
2018-12-09T04:18:13.139Z,46.36
2018-12-09T04:23:16.446Z,46.08
2018-12-09T04:28:19.750Z,46.70
2018-12-09T04:33:23.041Z,46.32
2018-12-09T04:38:26.365Z,46.79
2018-12-09T04:43:29.642Z,47.01
2018-12-09T04:48:32.954Z,46.59
2018-12-09T04:53:36.238Z,45.89
2018-12-09T05:03:57.399Z,46.03
2018-12-09T05:09:00.782Z,45.56
2018-12-09T05:14:04.176Z,45.47
2018-12-09T05:19:07.462Z,45.73
2018-12-09T05:24:10.769Z,45.64
2018-12-09T05:29:14.055Z,45.92
2018-12-09T05:34:17.340Z,46.05
2018-12-09T05:39:20.639Z,46.16
2018-12-09T05:44:23.921Z,46.11
2018-12-09T05:49:27.222Z,46.47
2018-12-09T05:54:30.530Z,46.70
2018-12-09T05:59:33.902Z,46.63
2018-12-09T06:04:37.186Z,46.61
2018-12-09T06:09:40.488Z,46.67
2018-12-09T06:14:43.777Z,46.68
2018-12-09T06:19:47.062Z,46.71
2018-12-09T06:24:50.345Z,47.03
2018-12-09T06:29:53.642Z,47.19
2018-12-09T06:34:56.930Z,47.40
2018-12-09T06:40:00.211Z,47.29
2018-12-09T06:45:03.558Z,47.00
2018-12-09T06:50:09.221Z,47.36
2018-12-09T06:55:12.512Z,47.45
2018-12-09T07:00:15.826Z,47.08
2018-12-09T07:05:19.122Z,47.22
2018-12-09T07:10:22.413Z,47.32
2018-12-09T07:15:25.736Z,46.82
2018-12-09T07:20:29.037Z,46.84
2018-12-09T07:25:32.331Z,46.62
2018-12-09T07:30:35.634Z,47.17
2018-12-09T07:35:38.930Z,46.67
2018-12-09T07:40:42.250Z,47.15
2018-12-09T07:45:45.657Z,47.11
2018-12-09T07:50:48.947Z,47.60
2018-12-09T07:55:52.234Z,40.74
2018-12-09T08:00:55.521Z,48.71
2018-12-09T08:05:58.806Z,47.59
2018-12-09T08:11:02.301Z,47.76
2018-12-09T08:16:05.590Z,47.47
2018-12-09T08:21:09.199Z,47.82
2018-12-09T08:26:12.720Z,47.93
2018-12-09T08:31:16.006Z,48.99
2018-12-09T08:36:19.291Z,48.96
2018-12-09T08:41:22.573Z,48.58
2018-12-09T08:46:25.857Z,48.83
2018-12-09T08:51:29.224Z,48.49
2018-12-09T08:56:32.502Z,48.28
2018-12-09T09:01:35.784Z,48.23
2018-12-09T09:06:39.127Z,48.03
2018-12-09T09:11:42.466Z,47.74
2018-12-09T09:16:45.754Z,47.46
2018-12-09T09:21:49.027Z,47.79
2018-12-09T09:26:52.305Z,47.35
2018-12-09T09:31:55.639Z,47.58
2018-12-09T09:36:58.925Z,47.05
2018-12-09T09:42:02.198Z,47.74
2018-12-09T09:47:05.475Z,47.57
2018-12-09T09:52:08.758Z,47.58
2018-12-09T09:57:12.034Z,47.21
2018-12-09T10:02:15.311Z,47.25
2018-12-09T10:07:19.238Z,47.70
2018-12-09T10:12:22.833Z,47.43
2018-12-09T10:17:26.137Z,47.60
2018-12-09T10:22:29.430Z,47.59
2018-12-09T10:27:32.816Z,47.73
2018-12-09T10:32:37.139Z,47.75
2018-12-09T10:37:41.318Z,47.34
2018-12-09T10:42:44.602Z,47.29
2018-12-09T10:47:48.006Z,47.53
2018-12-09T10:52:57.144Z,47.24
2018-12-09T10:58:00.506Z,47.20
2018-12-09T11:03:04.513Z,47.27
2018-12-09T11:08:07.828Z,47.67
2018-12-09T11:13:11.118Z,47.50
2018-12-09T11:18:14.493Z,47.46
2018-12-09T11:23:17.795Z,47.33
2018-12-09T11:28:21.168Z,47.19
2018-12-09T11:33:24.493Z,47.75
2018-12-09T11:38:27.818Z,47.47
2018-12-09T11:43:31.101Z,47.93
2018-12-09T11:48:34.398Z,47.00
2018-12-09T11:53:37.687Z,47.51
2018-12-09T11:58:40.998Z,47.11
2018-12-09T12:03:44.567Z,47.47
2018-12-09T12:08:47.874Z,47.69
2018-12-09T12:13:51.157Z,48.97
2018-12-09T12:18:54.432Z,49.31
2018-12-09T12:23:57.713Z,48.24
2018-12-09T12:29:01.187Z,47.94
2018-12-09T12:34:04.458Z,47.76
2018-12-09T12:39:08.061Z,47.22
2018-12-09T12:44:11.340Z,45.99
2018-12-09T12:49:14.614Z,45.82
2018-12-09T12:54:18.541Z,46.33
2018-12-09T12:59:21.829Z,46.77
2018-12-09T13:04:25.102Z,46.61
2018-12-09T13:09:28.405Z,46.47
2018-12-09T13:14:31.726Z,46.54
2018-12-09T13:19:35.079Z,45.89
2018-12-09T13:24:38.423Z,46.45
2018-12-09T13:29:41.723Z,46.46
2018-12-09T13:34:45.030Z,46.11
2018-12-09T13:39:48.336Z,45.96
2018-12-09T13:44:51.657Z,45.82
2018-12-09T13:49:54.967Z,45.36
2018-12-09T13:54:58.270Z,45.48
2018-12-09T14:00:01.572Z,45.31
2018-12-09T14:05:05.706Z,45.13
2018-12-09T14:10:09.011Z,45.77
2018-12-09T14:15:12.313Z,45.75
2018-12-09T14:20:15.610Z,45.32
2018-12-09T14:25:18.907Z,45.66
2018-12-09T14:30:22.206Z,45.79
2018-12-09T14:35:25.501Z,45.60
2018-12-09T14:40:28.798Z,45.64
2018-12-09T14:45:32.106Z,45.16
2018-12-09T14:50:35.395Z,45.11
2018-12-09T14:55:38.688Z,45.61
2018-12-09T15:00:41.989Z,46.06
2018-12-09T15:05:45.298Z,46.10
2018-12-09T15:10:48.600Z,45.88
2018-12-09T15:15:52.062Z,45.16
2018-12-09T15:20:55.373Z,45.00
2018-12-09T15:25:58.662Z,45.10
2018-12-09T15:31:01.948Z,45.21
2018-12-09T15:36:05.252Z,45.14
2018-12-09T15:41:08.538Z,45.06
2018-12-09T15:46:11.825Z,45.63
2018-12-09T15:51:15.390Z,45.48
2018-12-09T15:56:18.678Z,45.35
2018-12-09T16:01:21.978Z,45.61
2018-12-09T16:06:25.262Z,45.39
2018-12-09T16:11:28.610Z,45.57
2018-12-09T16:16:31.938Z,45.38
2018-12-09T16:21:35.266Z,45.56
2018-12-09T16:26:38.578Z,45.10
2018-12-09T16:31:41.862Z,45.22
2018-12-09T16:36:45.129Z,44.83
2018-12-09T16:41:48.454Z,45.30
2018-12-09T16:46:51.727Z,45.34
2018-12-09T16:51:54.994Z,45.88
2018-12-09T16:56:58.262Z,46.10
2018-12-09T17:02:01.541Z,46.28
2018-12-09T17:07:05.746Z,45.76
2018-12-09T17:12:09.963Z,44.76
2018-12-09T17:17:13.249Z,45.56
2018-12-09T17:22:16.529Z,44.93
2018-12-09T17:27:19.817Z,44.54
2018-12-09T17:32:23.105Z,44.57
2018-12-09T17:37:26.390Z,44.39
2018-12-09T17:42:29.677Z,44.75
2018-12-09T17:47:32.957Z,44.57
2018-12-09T17:52:36.240Z,44.22
2018-12-09T17:57:39.550Z,44.22
2018-12-09T18:02:42.833Z,44.29
2018-12-09T18:07:46.134Z,44.71
2018-12-09T18:12:49.412Z,44.48
2018-12-09T18:51:39.201Z,43.54
2018-12-09T18:56:42.482Z,43.89
2018-12-09T19:01:45.761Z,43.79
2018-12-09T19:06:49.054Z,43.12
2018-12-09T19:11:52.342Z,43.60
2018-12-09T19:16:55.638Z,43.47
2018-12-09T19:21:58.926Z,43.81
2018-12-09T19:27:02.218Z,44.05
2018-12-09T19:32:05.731Z,44.12
2018-12-09T19:37:09.966Z,44.43
2018-12-09T19:42:13.271Z,44.30
2018-12-09T19:47:16.561Z,44.13
2018-12-09T19:52:19.852Z,44.42
2018-12-09T19:57:23.138Z,43.67
2018-12-09T20:02:26.558Z,43.45
2018-12-09T20:07:29.830Z,43.72
2018-12-09T20:12:33.123Z,43.77
2018-12-09T20:17:36.442Z,43.58
2018-12-09T20:22:39.727Z,43.74
2018-12-09T20:27:43.026Z,43.57
2018-12-09T20:32:46.331Z,43.90
2018-12-09T20:37:49.613Z,43.92
2018-12-09T20:42:52.902Z,44.23
2018-12-09T20:47:56.194Z,43.77
2018-12-09T20:52:59.485Z,43.37
2018-12-09T20:58:02.782Z,43.56
2018-12-09T21:03:06.082Z,43.49
2018-12-09T21:08:09.403Z,43.59
2018-12-09T21:13:12.714Z,43.63
2018-12-09T21:18:16.045Z,43.54
2018-12-09T21:23:19.342Z,43.81
2018-12-09T21:28:22.635Z,43.75
2018-12-09T21:33:25.940Z,43.77
2018-12-09T21:38:29.247Z,43.41
2018-12-09T21:43:32.569Z,43.21
2018-12-09T21:48:35.862Z,43.68
2018-12-09T21:53:39.161Z,43.06
2018-12-09T21:58:42.469Z,43.48
2018-12-09T22:03:45.791Z,43.41
2018-12-09T22:08:49.118Z,43.40
2018-12-09T22:13:53.239Z,43.60
2018-12-09T22:18:56.562Z,43.95
2018-12-09T22:23:59.866Z,43.89
2018-12-09T22:29:03.158Z,43.45
2018-12-09T22:34:06.466Z,43.50
2018-12-09T22:39:09.766Z,43.93
2018-12-09T22:44:13.066Z,43.95
2018-12-09T22:49:16.369Z,43.79
2018-12-09T22:54:19.666Z,43.87
2018-12-09T22:59:22.966Z,43.90
2018-12-09T23:04:26.262Z,44.06
2018-12-09T23:09:29.638Z,43.96
2018-12-09T23:14:32.966Z,43.77
2018-12-09T23:19:36.289Z,43.99
2018-12-09T23:24:39.595Z,44.14
2018-12-09T23:29:42.914Z,44.24
2018-12-09T23:34:46.220Z,44.00
2018-12-09T23:39:49.530Z,43.74
2018-12-09T23:44:52.845Z,43.91
2018-12-09T23:49:56.147Z,43.81
2018-12-09T23:54:59.461Z,43.68
